sensor_id;sensor_type;location;lat;lon;timestamp;temperature;humidity
9949;DHT22;5013;51.840;8.276;2023-05-10T00:00:12;15.50;99.90
9949;DHT22;5013;51.840;8.276;2023-05-10T00:02:38;15.50;99.90
9949;DHT22;5013;51.840;8.276;2023-05-10T00:05:04;15.60;99.90
9949;DHT22;5013;51.840;8.276;2023-05-10T00:07:30;15.60;99.90
9949;DHT22;5013;51.840;8.276;2023-05-10T00:09:56;15.50;99.90
9949;DHT22;5013;51.840;8.276;2023-05-10T00:12:21;15.50;99.90
9949;DHT22;5013;51.840;8.276;2023-05-10T00:14:47;15.50;99.90
9949;DHT22;5013;51.840;8.276;2023-05-10T00:17:12;15.60;99.90
9949;DHT22;5013;51.840;8.276;2023-05-10T00:19:38;15.60;99.90
9949;DHT22;5013;51.840;8.276;2023-05-10T00:22:04;15.60;99.90
9949;DHT22;5013;51.840;8.276;2023-05-10T00:24:29;15.60;99.90
9949;DHT22;5013;51.840;8.276;2023-05-10T00:26:55;15.60;99.90
9949;DHT22;5013;51.840;8.276;2023-05-10T00:29:20;15.50;99.90
9949;DHT22;5013;51.840;8.276;2023-05-10T00:31:46;15.50;99.90
9949;DHT22;5013;51.840;8.276;2023-05-10T00:34:11;15.30;99.90
9949;DHT22;5013;51.840;8.276;2023-05-10T00:36:37;15.30;99.90
9949;DHT22;5013;51.840;8.276;2023-05-10T00:39:03;15.40;99.90
9949;DHT22;5013;51.840;8.276;2023-05-10T00:41:29;15.40;99.90
9949;DHT22;5013;51.840;8.276;2023-05-10T00:43:57;15.50;99.90
9949;DHT22;5013;51.840;8.276;2023-05-10T00:46:23;15.50;99.90
9949;DHT22;5013;51.840;8.276;2023-05-10T00:48:49;15.40;99.90
9949;DHT22;5013;51.840;8.276;2023-05-10T00:51:14;15.40;99.90
9949;DHT22;5013;51.840;8.276;2023-05-10T00:53:40;15.40;99.90
9949;DHT22;5013;51.840;8.276;2023-05-10T00:56:06;15.40;99.90
9949;DHT22;5013;51.840;8.276;2023-05-10T00:58:32;15.40;99.90
9949;DHT22;5013;51.840;8.276;2023-05-10T01:00:58;15.40;99.90
9949;DHT22;5013;51.840;8.276;2023-05-10T01:03:25;15.50;99.90
9949;DHT22;5013;51.840;8.276;2023-05-10T01:05:52;15.50;99.90
9949;DHT22;5013;51.840;8.276;2023-05-10T01:08:18;15.40;99.90
9949;DHT22;5013;51.840;8.276;2023-05-10T01:10:44;15.30;99.90
9949;DHT22;5013;51.840;8.276;2023-05-10T01:13:10;15.30;99.90
9949;DHT22;5013;51.840;8.276;2023-05-10T01:15:36;15.30;99.90
9949;DHT22;5013;51.840;8.276;2023-05-10T01:18:03;15.30;99.90
9949;DHT22;5013;51.840;8.276;2023-05-10T01:20:35;15.30;99.90
9949;DHT22;5013;51.840;8.276;2023-05-10T01:23:36;15.30;99.90
9949;DHT22;5013;51.840;8.276;2023-05-10T01:32:30;15.00;99.90
9949;DHT22;5013;51.840;8.276;2023-05-10T01:35:02;14.90;99.90
9949;DHT22;5013;51.840;8.276;2023-05-10T01:38:17;14.80;99.90
9949;DHT22;5013;51.840;8.276;2023-05-10T01:40:30;14.90;99.90
9949;DHT22;5013;51.840;8.276;2023-05-10T01:43:03;14.90;99.90
9949;DHT22;5013;51.840;8.276;2023-05-10T01:46:17;14.80;99.90
9949;DHT22;5013;51.840;8.276;2023-05-10T01:48:47;14.80;99.90
9949;DHT22;5013;51.840;8.276;2023-05-10T01:51:21;14.70;99.90
9949;DHT22;5013;51.840;8.276;2023-05-10T01:53:48;14.70;99.90
9949;DHT22;5013;51.840;8.276;2023-05-10T01:56:15;14.60;99.90
9949;DHT22;5013;51.840;8.276;2023-05-10T01:58:43;14.70;99.90
9949;DHT22;5013;51.840;8.276;2023-05-10T02:01:11;14.70;99.90
9949;DHT22;5013;51.840;8.276;2023-05-10T02:03:38;14.80;99.90
9949;DHT22;5013;51.840;8.276;2023-05-10T02:06:05;14.80;99.90
9949;DHT22;5013;51.840;8.276;2023-05-10T02:08:33;14.70;99.90
9949;DHT22;5013;51.840;8.276;2023-05-10T02:11:01;14.70;99.90
9949;DHT22;5013;51.840;8.276;2023-05-10T02:13:28;14.80;99.90
9949;DHT22;5013;51.840;8.276;2023-05-10T02:15:55;14.80;99.90
9949;DHT22;5013;51.840;8.276;2023-05-10T02:18:23;14.80;99.90
9949;DHT22;5013;51.840;8.276;2023-05-10T02:20:50;14.70;99.90
9949;DHT22;5013;51.840;8.276;2023-05-10T02:23:17;14.80;99.90
9949;DHT22;5013;51.840;8.276;2023-05-10T02:25:43;14.80;99.90
9949;DHT22;5013;51.840;8.276;2023-05-10T02:28:10;14.80;99.90
9949;DHT22;5013;51.840;8.276;2023-05-10T02:30:37;14.80;99.90
9949;DHT22;5013;51.840;8.276;2023-05-10T02:33:05;14.80;99.90
9949;DHT22;5013;51.840;8.276;2023-05-10T02:35:32;14.70;99.90
9949;DHT22;5013;51.840;8.276;2023-05-10T02:37:59;14.80;99.90
9949;DHT22;5013;51.840;8.276;2023-05-10T02:40:26;14.70;99.90
9949;DHT22;5013;51.840;8.276;2023-05-10T02:42:55;14.70;99.90
9949;DHT22;5013;51.840;8.276;2023-05-10T02:45:24;14.70;99.90
9949;DHT22;5013;51.840;8.276;2023-05-10T02:47:52;14.70;99.90
9949;DHT22;5013;51.840;8.276;2023-05-10T02:50:18;14.60;99.90
9949;DHT22;5013;51.840;8.276;2023-05-10T02:52:50;14.60;99.90
9949;DHT22;5013;51.840;8.276;2023-05-10T02:55:19;14.50;99.90
9949;DHT22;5013;51.840;8.276;2023-05-10T02:57:52;14.50;99.90
9949;DHT22;5013;51.840;8.276;2023-05-10T03:00:19;14.50;99.90
9949;DHT22;5013;51.840;8.276;2023-05-10T03:02:45;14.50;99.90
9949;DHT22;5013;51.840;8.276;2023-05-10T03:05:11;14.50;99.90
9949;DHT22;5013;51.840;8.276;2023-05-10T03:07:36;14.40;99.90
9949;DHT22;5013;51.840;8.276;2023-05-10T03:10:03;14.40;99.90
9949;DHT22;5013;51.840;8.276;2023-05-10T03:18:15;14.30;99.90
9949;DHT22;5013;51.840;8.276;2023-05-10T03:20:48;14.10;99.90
9949;DHT22;5013;51.840;8.276;2023-05-10T03:25:44;14.10;99.90
9949;DHT22;5013;51.840;8.276;2023-05-10T03:28:12;14.00;99.90
9949;DHT22;5013;51.840;8.276;2023-05-10T03:30:38;13.90;99.90
9949;DHT22;5013;51.840;8.276;2023-05-10T03:33:05;13.90;99.90
9949;DHT22;5013;51.840;8.276;2023-05-10T03:35:34;13.90;99.90
9949;DHT22;5013;51.840;8.276;2023-05-10T03:38:00;13.80;99.90
9949;DHT22;5013;51.840;8.276;2023-05-10T03:40:26;13.80;99.90
9949;DHT22;5013;51.840;8.276;2023-05-10T03:42:54;13.70;99.90
9949;DHT22;5013;51.840;8.276;2023-05-10T03:45:20;13.70;99.90
9949;DHT22;5013;51.840;8.276;2023-05-10T03:47:46;13.70;99.90
9949;DHT22;5013;51.840;8.276;2023-05-10T03:50:12;13.60;99.90
9949;DHT22;5013;51.840;8.276;2023-05-10T03:52:37;13.60;99.90
9949;DHT22;5013;51.840;8.276;2023-05-10T03:55:05;13.50;99.90
9949;DHT22;5013;51.840;8.276;2023-05-10T03:57:31;13.50;99.90
9949;DHT22;5013;51.840;8.276;2023-05-10T03:59:56;13.40;99.90
9949;DHT22;5013;51.840;8.276;2023-05-10T04:02:22;13.30;99.90
9949;DHT22;5013;51.840;8.276;2023-05-10T04:04:47;13.40;99.90
9949;DHT22;5013;51.840;8.276;2023-05-10T04:07:13;13.20;99.90
9949;DHT22;5013;51.840;8.276;2023-05-10T04:09:39;13.30;99.90
9949;DHT22;5013;51.840;8.276;2023-05-10T04:12:05;13.30;99.90
9949;DHT22;5013;51.840;8.276;2023-05-10T04:14:31;13.30;99.90
9949;DHT22;5013;51.840;8.276;2023-05-10T04:16:56;13.30;99.90
9949;DHT22;5013;51.840;8.276;2023-05-10T04:19:22;13.40;99.90
9949;DHT22;5013;51.840;8.276;2023-05-10T04:21:48;13.40;99.90
9949;DHT22;5013;51.840;8.276;2023-05-10T04:24:13;13.30;99.90
9949;DHT22;5013;51.840;8.276;2023-05-10T04:26:39;13.30;99.90
9949;DHT22;5013;51.840;8.276;2023-05-10T04:29:04;13.30;99.90
9949;DHT22;5013;51.840;8.276;2023-05-10T04:31:30;13.30;99.90
9949;DHT22;5013;51.840;8.276;2023-05-10T04:33:55;13.30;99.90
9949;DHT22;5013;51.840;8.276;2023-05-10T04:36:21;13.30;99.90
9949;DHT22;5013;51.840;8.276;2023-05-10T04:38:46;13.40;99.90
9949;DHT22;5013;51.840;8.276;2023-05-10T04:41:12;13.40;99.90
9949;DHT22;5013;51.840;8.276;2023-05-10T04:43:38;13.40;99.90
9949;DHT22;5013;51.840;8.276;2023-05-10T04:46:04;13.30;99.90
9949;DHT22;5013;51.840;8.276;2023-05-10T04:48:30;13.30;99.90
9949;DHT22;5013;51.840;8.276;2023-05-10T04:50:56;13.30;99.90
9949;DHT22;5013;51.840;8.276;2023-05-10T04:53:22;13.40;99.90
9949;DHT22;5013;51.840;8.276;2023-05-10T04:55:47;13.30;99.90
9949;DHT22;5013;51.840;8.276;2023-05-10T04:58:13;13.30;99.90
9949;DHT22;5013;51.840;8.276;2023-05-10T05:00:39;13.30;99.90
9949;DHT22;5013;51.840;8.276;2023-05-10T05:03:04;13.40;99.90
9949;DHT22;5013;51.840;8.276;2023-05-10T05:05:30;13.50;99.90
9949;DHT22;5013;51.840;8.276;2023-05-10T05:07:56;13.50;99.90
9949;DHT22;5013;51.840;8.276;2023-05-10T05:10:21;13.40;99.90
9949;DHT22;5013;51.840;8.276;2023-05-10T05:12:47;13.40;99.90
9949;DHT22;5013;51.840;8.276;2023-05-10T05:15:13;13.40;99.90
9949;DHT22;5013;51.840;8.276;2023-05-10T05:17:38;13.40;99.90
9949;DHT22;5013;51.840;8.276;2023-05-10T05:20:04;13.50;99.90
9949;DHT22;5013;51.840;8.276;2023-05-10T05:22:30;13.40;99.90
9949;DHT22;5013;51.840;8.276;2023-05-10T05:24:56;13.50;99.90
9949;DHT22;5013;51.840;8.276;2023-05-10T05:27:24;13.60;99.90
9949;DHT22;5013;51.840;8.276;2023-05-10T05:29:54;13.50;99.90
9949;DHT22;5013;51.840;8.276;2023-05-10T05:32:20;13.70;99.90
9949;DHT22;5013;51.840;8.276;2023-05-10T05:34:46;13.60;99.90
9949;DHT22;5013;51.840;8.276;2023-05-10T05:37:13;13.60;99.90
9949;DHT22;5013;51.840;8.276;2023-05-10T05:39:39;13.60;99.90
9949;DHT22;5013;51.840;8.276;2023-05-10T05:42:05;13.60;99.90
9949;DHT22;5013;51.840;8.276;2023-05-10T05:44:30;13.60;99.90
9949;DHT22;5013;51.840;8.276;2023-05-10T05:46:56;13.70;99.90
9949;DHT22;5013;51.840;8.276;2023-05-10T05:49:22;13.70;99.90
9949;DHT22;5013;51.840;8.276;2023-05-10T05:51:47;13.70;99.90
9949;DHT22;5013;51.840;8.276;2023-05-10T05:54:14;13.70;99.90
9949;DHT22;5013;51.840;8.276;2023-05-10T05:56:40;13.70;99.90
9949;DHT22;5013;51.840;8.276;2023-05-10T05:59:06;13.80;99.90
9949;DHT22;5013;51.840;8.276;2023-05-10T06:01:31;13.90;99.90
9949;DHT22;5013;51.840;8.276;2023-05-10T06:03:57;13.90;99.90
9949;DHT22;5013;51.840;8.276;2023-05-10T06:06:22;13.90;99.90
9949;DHT22;5013;51.840;8.276;2023-05-10T06:08:48;13.90;99.90
9949;DHT22;5013;51.840;8.276;2023-05-10T06:11:13;13.90;99.90
9949;DHT22;5013;51.840;8.276;2023-05-10T06:13:39;13.90;99.90
9949;DHT22;5013;51.840;8.276;2023-05-10T06:16:05;13.90;99.90
9949;DHT22;5013;51.840;8.276;2023-05-10T06:18:31;14.00;99.90
9949;DHT22;5013;51.840;8.276;2023-05-10T06:20:56;14.10;99.90
9949;DHT22;5013;51.840;8.276;2023-05-10T06:23:22;14.10;99.90
9949;DHT22;5013;51.840;8.276;2023-05-10T06:25:48;14.10;99.90
9949;DHT22;5013;51.840;8.276;2023-05-10T06:28:14;14.20;99.90
9949;DHT22;5013;51.840;8.276;2023-05-10T06:30:39;14.20;99.90
9949;DHT22;5013;51.840;8.276;2023-05-10T06:33:05;14.20;99.90
9949;DHT22;5013;51.840;8.276;2023-05-10T06:35:30;14.20;99.90
9949;DHT22;5013;51.840;8.276;2023-05-10T06:37:58;14.30;99.90
9949;DHT22;5013;51.840;8.276;2023-05-10T06:40:24;14.30;99.90
9949;DHT22;5013;51.840;8.276;2023-05-10T06:42:49;14.30;99.90
9949;DHT22;5013;51.840;8.276;2023-05-10T06:45:15;14.40;99.90
9949;DHT22;5013;51.840;8.276;2023-05-10T06:47:41;14.50;99.90
9949;DHT22;5013;51.840;8.276;2023-05-10T06:50:08;14.60;99.90
9949;DHT22;5013;51.840;8.276;2023-05-10T06:52:34;14.70;99.90
9949;DHT22;5013;51.840;8.276;2023-05-10T06:55:00;14.80;99.90
9949;DHT22;5013;51.840;8.276;2023-05-10T06:57:25;15.00;99.90
9949;DHT22;5013;51.840;8.276;2023-05-10T06:59:51;15.00;99.90
9949;DHT22;5013;51.840;8.276;2023-05-10T07:02:17;15.10;99.90
9949;DHT22;5013;51.840;8.276;2023-05-10T07:04:43;15.10;99.90
9949;DHT22;5013;51.840;8.276;2023-05-10T07:07:09;15.30;1.00
9949;DHT22;5013;51.840;8.276;2023-05-10T07:09:34;15.30;1.00
9949;DHT22;5013;51.840;8.276;2023-05-10T07:12:00;15.30;1.00
9949;DHT22;5013;51.840;8.276;2023-05-10T07:14:27;15.30;1.00
9949;DHT22;5013;51.840;8.276;2023-05-10T07:16:52;15.40;1.00
9949;DHT22;5013;51.840;8.276;2023-05-10T07:19:18;15.50;1.00
9949;DHT22;5013;51.840;8.276;2023-05-10T07:21:44;15.50;1.00
9949;DHT22;5013;51.840;8.276;2023-05-10T07:24:10;15.50;1.00
9949;DHT22;5013;51.840;8.276;2023-05-10T07:26:35;15.40;1.00
9949;DHT22;5013;51.840;8.276;2023-05-10T07:29:01;15.30;1.00
9949;DHT22;5013;51.840;8.276;2023-05-10T07:31:27;15.20;1.00
9949;DHT22;5013;51.840;8.276;2023-05-10T07:33:53;15.30;1.00
9949;DHT22;5013;51.840;8.276;2023-05-10T07:36:19;15.30;1.00
9949;DHT22;5013;51.840;8.276;2023-05-10T07:38:44;15.30;1.00
9949;DHT22;5013;51.840;8.276;2023-05-10T07:41:11;15.20;1.00
9949;DHT22;5013;51.840;8.276;2023-05-10T07:43:37;15.20;1.00
9949;DHT22;5013;51.840;8.276;2023-05-10T07:46:02;15.40;29.20
9949;DHT22;5013;51.840;8.276;2023-05-10T07:48:28;15.50;80.80
9949;DHT22;5013;51.840;8.276;2023-05-10T07:50:53;15.70;1.00
9949;DHT22;5013;51.840;8.276;2023-05-10T07:53:19;16.00;1.00
9949;DHT22;5013;51.840;8.276;2023-05-10T07:55:50;16.40;1.00
9949;DHT22;5013;51.840;8.276;2023-05-10T07:58:16;16.40;1.00
9949;DHT22;5013;51.840;8.276;2023-05-10T08:00:41;16.30;99.90
9949;DHT22;5013;51.840;8.276;2023-05-10T08:03:07;16.30;1.00
9949;DHT22;5013;51.840;8.276;2023-05-10T08:05:32;16.30;1.00
9949;DHT22;5013;51.840;8.276;2023-05-10T08:07:58;16.50;99.90
9949;DHT22;5013;51.840;8.276;2023-05-10T08:10:25;16.50;11.20
9949;DHT22;5013;51.840;8.276;2023-05-10T08:12:50;16.50;1.00
9949;DHT22;5013;51.840;8.276;2023-05-10T08:15:16;16.50;99.90
9949;DHT22;5013;51.840;8.276;2023-05-10T08:17:42;16.50;99.90
9949;DHT22;5013;51.840;8.276;2023-05-10T08:20:08;16.30;1.00
9949;DHT22;5013;51.840;8.276;2023-05-10T08:22:34;16.30;1.00
9949;DHT22;5013;51.840;8.276;2023-05-10T08:25:00;16.20;99.90
9949;DHT22;5013;51.840;8.276;2023-05-10T08:27:25;16.20;99.90
9949;DHT22;5013;51.840;8.276;2023-05-10T08:29:51;16.30;1.00
9949;DHT22;5013;51.840;8.276;2023-05-10T08:32:17;16.40;1.00
9949;DHT22;5013;51.840;8.276;2023-05-10T08:34:43;16.40;1.00
9949;DHT22;5013;51.840;8.276;2023-05-10T08:37:08;16.40;99.90
9949;DHT22;5013;51.840;8.276;2023-05-10T08:39:35;16.30;99.90
9949;DHT22;5013;51.840;8.276;2023-05-10T08:42:03;16.20;99.90
9949;DHT22;5013;51.840;8.276;2023-05-10T08:44:33;16.10;99.90
9949;DHT22;5013;51.840;8.276;2023-05-10T08:47:04;16.10;99.90
9949;DHT22;5013;51.840;8.276;2023-05-10T08:49:31;16.20;99.90
9949;DHT22;5013;51.840;8.276;2023-05-10T08:51:57;16.30;99.90
9949;DHT22;5013;51.840;8.276;2023-05-10T08:54:24;16.50;99.90
9949;DHT22;5013;51.840;8.276;2023-05-10T08:56:50;16.80;99.90
9949;DHT22;5013;51.840;8.276;2023-05-10T08:59:16;17.10;99.90
9949;DHT22;5013;51.840;8.276;2023-05-10T09:01:43;17.50;1.00
9949;DHT22;5013;51.840;8.276;2023-05-10T09:04:09;17.50;99.90
9949;DHT22;5013;51.840;8.276;2023-05-10T09:06:35;17.80;80.70
9949;DHT22;5013;51.840;8.276;2023-05-10T09:09:01;17.90;32.10
9949;DHT22;5013;51.840;8.276;2023-05-10T09:11:28;18.00;1.00
9949;DHT22;5013;51.840;8.276;2023-05-10T09:13:55;18.20;99.90
9949;DHT22;5013;51.840;8.276;2023-05-10T09:16:22;18.50;99.90
9949;DHT22;5013;51.840;8.276;2023-05-10T09:18:47;18.80;1.00
9949;DHT22;5013;51.840;8.276;2023-05-10T09:21:14;18.60;99.90
9949;DHT22;5013;51.840;8.276;2023-05-10T09:23:45;18.60;1.00
9949;DHT22;5013;51.840;8.276;2023-05-10T09:26:12;18.50;1.00
9949;DHT22;5013;51.840;8.276;2023-05-10T09:28:52;18.30;22.80
9949;DHT22;5013;51.840;8.276;2023-05-10T09:31:18;18.50;1.00
9949;DHT22;5013;51.840;8.276;2023-05-10T09:33:45;18.80;99.90
9949;DHT22;5013;51.840;8.276;2023-05-10T09:36:11;19.00;99.90
9949;DHT22;5013;51.840;8.276;2023-05-10T09:38:51;19.50;1.00
9949;DHT22;5013;51.840;8.276;2023-05-10T09:41:23;19.50;99.90
9949;DHT22;5013;51.840;8.276;2023-05-10T09:43:49;19.70;99.90
9949;DHT22;5013;51.840;8.276;2023-05-10T09:46:16;19.80;1.00
9949;DHT22;5013;51.840;8.276;2023-05-10T09:48:43;19.80;66.20
9949;DHT22;5013;51.840;8.276;2023-05-10T09:51:09;19.50;1.00
9949;DHT22;5013;51.840;8.276;2023-05-10T09:53:35;19.50;99.90
9949;DHT22;5013;51.840;8.276;2023-05-10T09:56:01;19.60;99.90
9949;DHT22;5013;51.840;8.276;2023-05-10T09:58:26;19.30;1.00
9949;DHT22;5013;51.840;8.276;2023-05-10T10:00:52;19.30;1.00
9949;DHT22;5013;51.840;8.276;2023-05-10T10:03:20;19.30;1.00
9949;DHT22;5013;51.840;8.276;2023-05-10T10:05:47;19.00;99.90
9949;DHT22;5013;51.840;8.276;2023-05-10T10:08:13;19.00;1.00
9949;DHT22;5013;51.840;8.276;2023-05-10T10:10:39;19.20;1.00
9949;DHT22;5013;51.840;8.276;2023-05-10T10:13:12;19.50;1.00
9949;DHT22;5013;51.840;8.276;2023-05-10T10:15:38;19.50;99.90
9949;DHT22;5013;51.840;8.276;2023-05-10T10:18:05;19.70;99.90
9949;DHT22;5013;51.840;8.276;2023-05-10T10:20:31;20.10;1.00
9949;DHT22;5013;51.840;8.276;2023-05-10T10:22:56;20.30;1.00
9949;DHT22;5013;51.840;8.276;2023-05-10T10:25:22;20.60;99.90
9949;DHT22;5013;51.840;8.276;2023-05-10T10:35:31;19.40;99.90
9949;DHT22;5013;51.840;8.276;2023-05-10T10:37:57;19.50;1.00
9949;DHT22;5013;51.840;8.276;2023-05-10T10:40:33;19.70;1.00
9949;DHT22;5013;51.840;8.276;2023-05-10T10:43:25;19.90;1.00
9949;DHT22;5013;51.840;8.276;2023-05-10T10:48:35;20.40;1.00
9949;DHT22;5013;51.840;8.276;2023-05-10T10:51:01;20.10;99.90
9949;DHT22;5013;51.840;8.276;2023-05-10T10:53:28;20.00;1.00
9949;DHT22;5013;51.840;8.276;2023-05-10T10:56:14;20.20;1.00
9949;DHT22;5013;51.840;8.276;2023-05-10T10:58:42;19.90;1.00
9949;DHT22;5013;51.840;8.276;2023-05-10T11:01:15;19.90;1.00
9949;DHT22;5013;51.840;8.276;2023-05-10T11:06:34;19.50;99.90
9949;DHT22;5013;51.840;8.276;2023-05-10T11:09:09;19.50;99.90
9949;DHT22;5013;51.840;8.276;2023-05-10T11:11:36;19.60;1.00
9949;DHT22;5013;51.840;8.276;2023-05-10T11:14:13;19.30;1.00
9949;DHT22;5013;51.840;8.276;2023-05-10T11:16:43;19.20;1.00
9949;DHT22;5013;51.840;8.276;2023-05-10T11:19:16;19.30;1.00
9949;DHT22;5013;51.840;8.276;2023-05-10T11:24:20;19.30;99.90
9949;DHT22;5013;51.840;8.276;2023-05-10T11:26:49;19.10;99.90
9949;DHT22;5013;51.840;8.276;2023-05-10T11:29:15;18.90;1.00
9949;DHT22;5013;51.840;8.276;2023-05-10T11:31:45;18.80;99.90
9949;DHT22;5013;51.840;8.276;2023-05-10T11:34:22;18.70;99.90
9949;DHT22;5013;51.840;8.276;2023-05-10T11:36:51;18.50;99.90
9949;DHT22;5013;51.840;8.276;2023-05-10T11:39:19;18.50;99.90
9949;DHT22;5013;51.840;8.276;2023-05-10T11:41:48;18.50;99.90
9949;DHT22;5013;51.840;8.276;2023-05-10T11:44:14;18.50;99.90
9949;DHT22;5013;51.840;8.276;2023-05-10T11:46:39;18.80;1.00
9949;DHT22;5013;51.840;8.276;2023-05-10T11:49:07;19.10;99.90
9949;DHT22;5013;51.840;8.276;2023-05-10T11:51:34;19.10;99.90
9949;DHT22;5013;51.840;8.276;2023-05-10T11:54:02;19.00;1.00
9949;DHT22;5013;51.840;8.276;2023-05-10T11:56:32;18.90;1.00
9949;DHT22;5013;51.840;8.276;2023-05-10T11:58:58;18.50;1.00
9949;DHT22;5013;51.840;8.276;2023-05-10T12:01:26;18.40;1.00
9949;DHT22;5013;51.840;8.276;2023-05-10T12:03:53;18.30;99.90
9949;DHT22;5013;51.840;8.276;2023-05-10T12:06:20;18.20;99.90
9949;DHT22;5013;51.840;8.276;2023-05-10T12:08:47;18.10;99.90
9949;DHT22;5013;51.840;8.276;2023-05-10T12:11:14;18.20;1.00
9949;DHT22;5013;51.840;8.276;2023-05-10T12:13:42;18.30;90.70
9949;DHT22;5013;51.840;8.276;2023-05-10T12:18:40;18.90;99.90
9949;DHT22;5013;51.840;8.276;2023-05-10T12:21:06;19.40;99.90
9949;DHT22;5013;51.840;8.276;2023-05-10T12:23:31;19.40;1.00
9949;DHT22;5013;51.840;8.276;2023-05-10T12:26:02;19.10;1.00
9949;DHT22;5013;51.840;8.276;2023-05-10T12:28:30;19.00;99.90
9949;DHT22;5013;51.840;8.276;2023-05-10T12:30:57;18.80;99.90
9949;DHT22;5013;51.840;8.276;2023-05-10T12:33:23;18.50;1.00
9949;DHT22;5013;51.840;8.276;2023-05-10T12:35:50;18.30;99.90
9949;DHT22;5013;51.840;8.276;2023-05-10T12:38:28;18.10;1.00
9949;DHT22;5013;51.840;8.276;2023-05-10T12:40:59;18.00;1.00
9949;DHT22;5013;51.840;8.276;2023-05-10T12:43:25;18.20;1.00
9949;DHT22;5013;51.840;8.276;2023-05-10T12:45:51;18.30;99.90
9949;DHT22;5013;51.840;8.276;2023-05-10T12:48:17;18.20;1.00
9949;DHT22;5013;51.840;8.276;2023-05-10T12:50:43;18.10;99.90
9949;DHT22;5013;51.840;8.276;2023-05-10T12:53:08;17.90;99.90
9949;DHT22;5013;51.840;8.276;2023-05-10T12:55:34;17.80;1.00
9949;DHT22;5013;51.840;8.276;2023-05-10T12:57:59;17.90;1.00
9949;DHT22;5013;51.840;8.276;2023-05-10T13:00:25;17.70;1.00
9949;DHT22;5013;51.840;8.276;2023-05-10T13:02:51;17.30;1.00
9949;DHT22;5013;51.840;8.276;2023-05-10T13:05:17;17.00;14.10
9949;DHT22;5013;51.840;8.276;2023-05-10T13:07:42;16.70;30.90
9949;DHT22;5013;51.840;8.276;2023-05-10T13:10:09;16.60;1.00
9949;DHT22;5013;51.840;8.276;2023-05-10T13:12:35;16.60;1.00
9949;DHT22;5013;51.840;8.276;2023-05-10T13:15:02;16.60;1.00
9949;DHT22;5013;51.840;8.276;2023-05-10T13:17:28;16.80;31.70
9949;DHT22;5013;51.840;8.276;2023-05-10T13:19:53;17.00;1.00
9949;DHT22;5013;51.840;8.276;2023-05-10T13:22:19;17.10;1.00
9949;DHT22;5013;51.840;8.276;2023-05-10T13:24:45;17.20;1.00
9949;DHT22;5013;51.840;8.276;2023-05-10T13:27:10;17.40;1.00
9949;DHT22;5013;51.840;8.276;2023-05-10T13:29:36;17.40;1.00
9949;DHT22;5013;51.840;8.276;2023-05-10T13:32:02;17.60;99.90
9949;DHT22;5013;51.840;8.276;2023-05-10T13:34:27;17.80;1.00
9949;DHT22;5013;51.840;8.276;2023-05-10T13:36:53;18.00;1.00
9949;DHT22;5013;51.840;8.276;2023-05-10T13:39:20;18.10;99.90
9949;DHT22;5013;51.840;8.276;2023-05-10T13:41:46;18.30;89.40
9949;DHT22;5013;51.840;8.276;2023-05-10T13:44:13;17.90;1.00
9949;DHT22;5013;51.840;8.276;2023-05-10T13:46:39;17.90;99.90
9949;DHT22;5013;51.840;8.276;2023-05-10T13:49:05;17.90;1.00
9949;DHT22;5013;51.840;8.276;2023-05-10T13:51:31;17.80;99.90
9949;DHT22;5013;51.840;8.276;2023-05-10T13:53:57;17.60;99.90
9949;DHT22;5013;51.840;8.276;2023-05-10T13:56:23;17.60;99.90
9949;DHT22;5013;51.840;8.276;2023-05-10T13:58:48;18.00;1.00
9949;DHT22;5013;51.840;8.276;2023-05-10T14:01:14;18.40;99.90
9949;DHT22;5013;51.840;8.276;2023-05-10T14:03:40;18.80;1.00
9949;DHT22;5013;51.840;8.276;2023-05-10T14:06:06;19.10;99.90
9949;DHT22;5013;51.840;8.276;2023-05-10T14:08:32;19.10;99.90
9949;DHT22;5013;51.840;8.276;2023-05-10T14:10:58;19.30;33.20
9949;DHT22;5013;51.840;8.276;2023-05-10T14:13:24;19.30;1.00
9949;DHT22;5013;51.840;8.276;2023-05-10T14:15:50;19.10;1.00
9949;DHT22;5013;51.840;8.276;2023-05-10T14:18:16;19.10;1.00
9949;DHT22;5013;51.840;8.276;2023-05-10T14:20:41;19.30;99.90
9949;DHT22;5013;51.840;8.276;2023-05-10T14:23:07;19.50;99.90
9949;DHT22;5013;51.840;8.276;2023-05-10T14:25:32;19.40;99.90
9949;DHT22;5013;51.840;8.276;2023-05-10T14:27:58;19.30;99.90
9949;DHT22;5013;51.840;8.276;2023-05-10T14:30:24;19.30;1.00
9949;DHT22;5013;51.840;8.276;2023-05-10T14:32:49;19.40;1.00
9949;DHT22;5013;51.840;8.276;2023-05-10T14:35:15;19.50;1.00
9949;DHT22;5013;51.840;8.276;2023-05-10T14:37:41;19.50;1.00
9949;DHT22;5013;51.840;8.276;2023-05-10T14:40:06;19.70;1.00
9949;DHT22;5013;51.840;8.276;2023-05-10T14:42:32;19.60;1.00
9949;DHT22;5013;51.840;8.276;2023-05-10T14:44:58;19.60;1.00
9949;DHT22;5013;51.840;8.276;2023-05-10T14:47:23;19.60;99.90
9949;DHT22;5013;51.840;8.276;2023-05-10T14:49:49;19.60;1.00
9949;DHT22;5013;51.840;8.276;2023-05-10T14:52:14;19.70;1.00
9949;DHT22;5013;51.840;8.276;2023-05-10T14:54:40;19.80;99.90
9949;DHT22;5013;51.840;8.276;2023-05-10T14:57:06;19.90;1.00
9949;DHT22;5013;51.840;8.276;2023-05-10T14:59:32;19.90;99.90
9949;DHT22;5013;51.840;8.276;2023-05-10T15:01:58;20.00;1.00
9949;DHT22;5013;51.840;8.276;2023-05-10T15:04:24;19.90;29.40
9949;DHT22;5013;51.840;8.276;2023-05-10T15:06:49;20.00;1.00
9949;DHT22;5013;51.840;8.276;2023-05-10T15:09:15;19.90;1.00
9949;DHT22;5013;51.840;8.276;2023-05-10T15:11:41;19.90;1.00
9949;DHT22;5013;51.840;8.276;2023-05-10T15:14:07;19.70;61.90
9949;DHT22;5013;51.840;8.276;2023-05-10T15:16:33;19.90;99.90
9949;DHT22;5013;51.840;8.276;2023-05-10T15:18:58;19.80;99.90
9949;DHT22;5013;51.840;8.276;2023-05-10T15:21:24;19.90;99.90
9949;DHT22;5013;51.840;8.276;2023-05-10T15:23:49;19.90;1.00
9949;DHT22;5013;51.840;8.276;2023-05-10T15:26:15;19.80;99.90
9949;DHT22;5013;51.840;8.276;2023-05-10T15:28:40;19.70;99.90
9949;DHT22;5013;51.840;8.276;2023-05-10T15:31:06;19.60;1.00
9949;DHT22;5013;51.840;8.276;2023-05-10T15:33:31;19.40;1.00
9949;DHT22;5013;51.840;8.276;2023-05-10T15:35:57;18.90;99.90
9949;DHT22;5013;51.840;8.276;2023-05-10T15:38:23;18.60;1.00
9949;DHT22;5013;51.840;8.276;2023-05-10T15:40:48;18.50;87.30
9949;DHT22;5013;51.840;8.276;2023-05-10T15:43:14;18.30;99.90
9949;DHT22;5013;51.840;8.276;2023-05-10T15:45:40;18.10;99.90
9949;DHT22;5013;51.840;8.276;2023-05-10T15:48:06;17.90;99.90
9949;DHT22;5013;51.840;8.276;2023-05-10T15:50:31;17.50;65.00
9949;DHT22;5013;51.840;8.276;2023-05-10T15:52:57;17.30;99.90
9949;DHT22;5013;51.840;8.276;2023-05-10T15:55:22;17.30;1.00
9949;DHT22;5013;51.840;8.276;2023-05-10T15:57:48;17.40;1.00
9949;DHT22;5013;51.840;8.276;2023-05-10T16:00:15;17.50;99.90
9949;DHT22;5013;51.840;8.276;2023-05-10T16:02:40;17.40;1.00
9949;DHT22;5013;51.840;8.276;2023-05-10T16:05:07;17.40;1.00
9949;DHT22;5013;51.840;8.276;2023-05-10T16:07:33;17.50;1.00
9949;DHT22;5013;51.840;8.276;2023-05-10T16:09:58;17.70;99.90
9949;DHT22;5013;51.840;8.276;2023-05-10T16:12:24;17.80;99.90
9949;DHT22;5013;51.840;8.276;2023-05-10T16:14:49;17.80;1.00
9949;DHT22;5013;51.840;8.276;2023-05-10T16:17:15;18.00;1.00
9949;DHT22;5013;51.840;8.276;2023-05-10T16:19:41;18.00;1.00
9949;DHT22;5013;51.840;8.276;2023-05-10T16:22:06;17.90;1.00
9949;DHT22;5013;51.840;8.276;2023-05-10T16:24:32;18.00;1.00
9949;DHT22;5013;51.840;8.276;2023-05-10T16:26:57;18.00;1.00
9949;DHT22;5013;51.840;8.276;2023-05-10T16:29:23;18.00;1.00
9949;DHT22;5013;51.840;8.276;2023-05-10T16:31:49;17.80;1.00
9949;DHT22;5013;51.840;8.276;2023-05-10T16:34:14;17.70;99.90
9949;DHT22;5013;51.840;8.276;2023-05-10T16:36:40;17.70;99.90